createdAt,value
2022-11-15T00:00:49.122Z,18.30
2022-11-15T00:03:19.577Z,17.70
2022-11-15T00:05:46.374Z,17.60
2022-11-15T00:08:13.347Z,18.83
2022-11-15T00:10:40.004Z,19.13
2022-11-15T00:13:07.848Z,19.60
2022-11-15T00:15:38.388Z,19.38
2022-11-15T00:20:34.142Z,17.67
2022-11-15T00:23:00.726Z,20.05
2022-11-15T00:25:28.127Z,16.33
2022-11-15T00:27:58.491Z,16.33
2022-11-15T00:30:25.153Z,17.02
2022-11-15T00:32:51.763Z,18.20
2022-11-15T00:35:18.613Z,16.67
2022-11-15T00:37:45.170Z,15.35
2022-11-15T00:40:16.078Z,18.05
2022-11-15T00:42:42.767Z,17.50
2022-11-15T00:45:10.063Z,15.93
2022-11-15T00:47:36.687Z,18.90
2022-11-15T00:50:03.791Z,17.05
2022-11-15T00:52:30.373Z,18.88
2022-11-15T00:54:56.929Z,17.65
2022-11-15T00:57:23.527Z,18.27
2022-11-15T00:59:50.081Z,15.02
2022-11-15T01:02:16.649Z,16.73
2022-11-15T01:04:43.206Z,15.73
2022-11-15T01:07:12.960Z,17.67
2022-11-15T01:09:39.546Z,14.38
2022-11-15T01:12:06.150Z,14.85
2022-11-15T01:14:32.707Z,13.30
2022-11-15T01:16:59.309Z,13.48
2022-11-15T01:19:25.971Z,15.88
2022-11-15T01:21:52.582Z,16.40
2022-11-15T01:24:19.290Z,11.75
2022-11-15T01:26:45.867Z,14.52
2022-11-15T01:29:12.438Z,13.50
2022-11-15T01:31:39.064Z,13.15
2022-11-15T01:34:05.729Z,16.00
2022-11-15T01:36:32.325Z,14.75
2022-11-15T11:39:35.568Z,8.38
2022-11-15T11:42:14.344Z,9.07
2022-11-15T11:45:08.837Z,8.65
2022-11-15T11:47:41.206Z,12.93
2022-11-15T11:50:15.488Z,8.55
2022-11-15T11:53:02.524Z,13.00
2022-11-15T11:55:39.519Z,10.40
2022-11-15T11:58:27.388Z,9.30
2022-11-15T12:01:00.081Z,9.27
2022-11-15T12:03:40.925Z,8.65
2022-11-15T12:06:27.776Z,12.68
2022-11-15T12:09:13.447Z,9.82
2022-11-15T12:11:57.480Z,8.23
2022-11-15T12:14:51.919Z,8.52
2022-11-15T12:17:32.908Z,10.18
2022-11-15T12:20:23.684Z,11.48
2022-11-15T12:23:03.104Z,14.35
2022-11-15T12:25:51.523Z,10.77
2022-11-15T12:28:30.358Z,7.95
2022-11-15T12:31:34.601Z,10.23
2022-11-15T12:34:07.049Z,6.90
2022-11-15T12:36:44.107Z,8.60
2022-11-15T12:39:11.875Z,10.55
2022-11-15T12:41:42.020Z,12.75
2022-11-15T12:44:13.073Z,8.88
2022-11-15T12:46:42.829Z,8.77
2022-11-15T12:49:10.917Z,11.45
2022-11-15T12:51:43.802Z,8.45
2022-11-15T12:54:22.564Z,11.40
2022-11-15T12:57:04.202Z,7.85
2022-11-15T12:59:56.108Z,9.68
2022-11-15T13:02:38.972Z,11.35
2022-11-15T13:05:46.073Z,8.25
2022-11-15T13:08:12.667Z,10.50
2022-11-15T13:10:39.260Z,9.35
2022-11-15T13:13:09.013Z,9.30
2022-11-15T13:15:57.639Z,10.98
2022-11-15T13:18:34.052Z,11.57
2022-11-15T13:21:02.899Z,11.85
2022-11-15T13:23:29.684Z,12.95
2022-11-15T13:26:14.341Z,10.82
2022-11-15T13:28:45.481Z,11.90
2022-11-15T13:31:29.187Z,5.38
2022-11-15T13:34:01.753Z,9.93
2022-11-15T13:36:30.605Z,7.95
2022-11-15T13:39:02.263Z,9.55
2022-11-15T13:41:32.408Z,9.73
2022-11-15T13:43:59.779Z,11.95
2022-11-15T13:46:30.559Z,10.93
2022-11-15T13:49:03.026Z,7.95
2022-11-15T13:51:37.713Z,10.90
2022-11-15T13:54:11.192Z,6.00
2022-11-15T13:56:37.848Z,8.80
2022-11-15T13:59:25.356Z,8.65
2022-11-15T14:01:52.443Z,10.25
2022-11-15T14:04:21.263Z,8.43
2022-11-15T14:06:49.969Z,8.65
2022-11-15T14:09:19.356Z,11.82
2022-11-15T14:11:53.394Z,9.90
2022-11-15T14:14:21.903Z,10.05
2022-11-15T14:16:51.225Z,10.75
2022-11-15T14:19:27.003Z,9.40
2022-11-15T14:22:14.142Z,7.57
2022-11-15T14:24:41.221Z,5.63
2022-11-15T14:27:24.832Z,8.50
2022-11-15T14:29:51.716Z,7.65
2022-11-15T14:32:26.747Z,8.80
2022-11-15T14:35:00.670Z,8.02
2022-11-15T14:37:34.538Z,8.82
2022-11-15T14:40:01.679Z,9.13
2022-11-15T14:42:28.390Z,10.82
2022-11-15T14:44:55.034Z,6.47
2022-11-15T14:47:21.700Z,10.60
2022-11-15T14:49:48.404Z,6.63
2022-11-15T14:52:28.755Z,6.75
2022-11-15T14:54:59.091Z,8.13
2022-11-15T14:57:25.803Z,8.88
2022-11-15T14:59:52.847Z,10.27
2022-11-15T15:02:21.098Z,9.75
2022-11-15T15:04:49.363Z,9.15
2022-11-15T15:07:16.210Z,10.60
2022-11-15T15:09:43.094Z,10.13
2022-11-15T15:12:20.435Z,11.77
2022-11-15T15:14:47.682Z,13.52
2022-11-15T15:17:14.438Z,12.93
2022-11-15T15:19:41.144Z,13.63
2022-11-15T15:22:16.646Z,11.13
2022-11-15T15:24:44.157Z,9.82
2022-11-15T15:27:10.953Z,16.05
2022-11-15T15:29:37.693Z,8.82
2022-11-15T15:32:04.834Z,16.58
2022-11-15T15:34:31.542Z,13.85
2022-11-15T15:37:25.134Z,16.98
2022-11-15T15:39:56.275Z,21.73
2022-11-15T15:42:23.320Z,14.50
2022-11-15T15:44:50.365Z,14.27
2022-11-15T15:47:21.313Z,27.58
2022-11-15T15:49:48.555Z,27.48
2022-11-15T15:52:15.183Z,25.73
2022-11-15T15:54:41.981Z,27.15
2022-11-15T15:57:09.558Z,20.15
2022-11-15T15:59:36.153Z,14.25
2022-11-15T16:02:02.849Z,16.13
2022-11-15T16:04:29.593Z,18.77
2022-11-15T16:07:00.425Z,17.90
2022-11-15T16:09:45.468Z,17.45
2022-11-15T16:12:12.067Z,21.25
2022-11-15T16:14:38.690Z,22.00
2022-11-15T16:17:06.132Z,21.13
2022-11-15T16:19:32.752Z,18.67
2022-11-15T16:21:59.343Z,14.60
2022-11-15T16:24:25.967Z,21.65
2022-11-15T16:34:30.693Z,14.25
2022-11-15T16:36:58.238Z,18.98
2022-11-15T16:39:24.886Z,11.70
2022-11-15T16:41:51.546Z,12.25
